createdAt,value
2018-03-19T00:00:30.104Z,-0.66
2018-03-19T00:01:30.115Z,-0.62
2018-03-19T00:02:30.136Z,-0.67
2018-03-19T00:03:30.147Z,-0.67
2018-03-19T00:04:30.164Z,-0.67
2018-03-19T00:05:30.178Z,-0.66
2018-03-19T00:06:30.189Z,-0.72
2018-03-19T00:07:30.209Z,-0.70
2018-03-19T00:08:30.214Z,-0.70
2018-03-19T00:09:30.236Z,-0.70
2018-03-19T00:10:30.242Z,-0.70
2018-03-19T00:11:30.263Z,-0.77
2018-03-19T00:12:30.274Z,-0.74
2018-03-19T00:13:30.291Z,-0.74
2018-03-19T00:14:30.301Z,-0.79
2018-03-19T00:15:30.313Z,-0.73
2018-03-19T00:16:30.331Z,-0.77
2018-03-19T00:17:30.342Z,-0.80
2018-03-19T00:18:30.365Z,-0.76
2018-03-19T00:19:30.380Z,-0.85
2018-03-19T00:20:30.390Z,-0.79
2018-03-19T00:21:30.408Z,-0.72
2018-03-19T00:22:30.419Z,-0.85
2018-03-19T00:23:30.435Z,-0.82
2018-03-19T00:24:30.441Z,-0.87
2018-03-19T00:25:30.458Z,-0.87
2018-03-19T00:26:30.475Z,-0.87
2018-03-19T00:27:30.491Z,-0.84
2018-03-19T00:28:30.502Z,-0.82
2018-03-19T00:29:30.513Z,-0.89
2018-03-19T00:30:30.534Z,-0.95
2018-03-19T00:31:30.543Z,-0.89
2018-03-19T00:32:30.555Z,-0.91
2018-03-19T00:33:30.577Z,-0.89
2018-03-19T00:34:30.584Z,-0.92
2018-03-19T00:35:30.604Z,-0.89
2018-03-19T00:36:30.616Z,-0.93
2018-03-19T00:37:30.626Z,-0.95
2018-03-19T00:38:30.644Z,-0.89
2018-03-19T00:39:30.660Z,-0.98
2018-03-19T00:40:30.678Z,-0.96
2018-03-19T00:41:30.689Z,-0.93
2018-03-19T00:42:30.707Z,-0.96
2018-03-19T00:43:30.719Z,-0.96
2018-03-19T00:44:30.726Z,-0.95
2018-03-19T00:45:30.749Z,-0.98
2018-03-19T00:46:30.756Z,-1.04
2018-03-19T00:47:30.775Z,-0.99
2018-03-19T00:48:30.791Z,-1.06
2018-03-19T00:49:30.803Z,-1.03
2018-03-19T00:50:30.813Z,-0.99
2018-03-19T00:51:30.828Z,-0.98
2018-03-19T00:52:30.852Z,-0.99
2018-03-19T00:53:30.862Z,-0.99
2018-03-19T00:54:30.873Z,-0.99
2018-03-19T00:55:30.884Z,-0.99
2018-03-19T00:56:30.902Z,-1.01
2018-03-19T00:57:30.912Z,-1.01
2018-03-19T00:58:30.930Z,-1.07
2018-03-19T00:59:30.938Z,-1.07
2018-03-19T01:00:30.968Z,-1.04
2018-03-19T01:01:30.966Z,-1.09
2018-03-19T01:02:30.990Z,-1.06
2018-03-19T01:03:30.998Z,-1.06
2018-03-19T01:04:31.009Z,-1.06
2018-03-19T01:05:31.032Z,-1.01
2018-03-19T01:06:31.037Z,-1.14
2018-03-19T01:07:31.052Z,-1.09
2018-03-19T01:08:31.075Z,-1.09
2018-03-19T01:09:31.091Z,-1.13
2018-03-19T01:10:31.097Z,-1.19
2018-03-19T01:11:31.108Z,-1.09
2018-03-19T01:12:31.131Z,-1.07
2018-03-19T01:13:31.135Z,-1.10
2018-03-19T01:14:31.159Z,-1.25
2018-03-19T01:15:31.168Z,-1.19
2018-03-19T01:16:31.184Z,-1.17
2018-03-19T01:17:31.195Z,-1.09
2018-03-19T01:18:31.218Z,-1.11
2018-03-19T01:19:31.226Z,-1.13
2018-03-19T01:20:31.238Z,-1.09
2018-03-19T01:21:31.254Z,-1.16
2018-03-19T01:22:31.265Z,-1.17
2018-03-19T01:23:31.286Z,-1.19
2018-03-19T01:24:31.291Z,-1.16
2018-03-19T01:25:31.315Z,-1.21
2018-03-19T01:26:31.320Z,-1.16
2018-03-19T01:27:31.342Z,-1.27
2018-03-19T01:28:31.349Z,-1.25
2018-03-19T01:29:31.376Z,-1.16
2018-03-19T01:30:31.375Z,-1.17
2018-03-19T01:31:31.396Z,-1.27
2018-03-19T01:32:31.407Z,-1.14
2018-03-19T01:33:31.423Z,-1.30
2018-03-19T01:34:31.444Z,-1.32
2018-03-19T01:35:31.452Z,-1.22
2018-03-19T01:36:31.467Z,-1.30
2018-03-19T01:37:31.481Z,-1.25
2018-03-19T01:38:31.487Z,-1.28
2018-03-19T01:39:31.502Z,-1.21
2018-03-19T01:40:31.524Z,-1.24
2018-03-19T01:41:31.535Z,-1.31
2018-03-19T01:42:31.547Z,-1.19
2018-03-19T01:43:31.557Z,-1.28
2018-03-19T01:44:31.579Z,-1.25
2018-03-19T01:45:31.591Z,-1.32
2018-03-19T01:46:31.607Z,-1.30
2018-03-19T01:47:31.616Z,-1.31
2018-03-19T01:48:31.633Z,-1.35
2018-03-19T01:49:31.649Z,-1.31
2018-03-19T01:50:31.655Z,-1.30
2018-03-19T01:51:31.670Z,-1.37
2018-03-19T01:52:31.693Z,-1.31
2018-03-19T01:53:31.703Z,-1.37
2018-03-19T01:54:31.714Z,-1.38
2018-03-19T01:55:31.728Z,-1.38
2018-03-19T01:56:31.745Z,-1.42
2018-03-19T01:57:31.761Z,-1.35
2018-03-19T01:58:31.767Z,-1.31
2018-03-19T01:59:31.785Z,-1.35
2018-03-19T02:00:31.800Z,-1.38
2018-03-19T02:01:31.817Z,-1.38
2018-03-19T02:02:31.822Z,-1.42
2018-03-19T02:03:31.836Z,-1.38
2018-03-19T02:04:31.859Z,-1.40
2018-03-19T02:05:31.869Z,-1.32
2018-03-19T02:06:31.883Z,-1.32
2018-03-19T02:07:31.895Z,-1.46
2018-03-19T02:08:31.912Z,-1.45
2018-03-19T02:09:31.923Z,-1.50
2018-03-19T02:10:31.939Z,-1.52
2018-03-19T02:11:31.948Z,-1.49
2018-03-19T02:12:31.972Z,-1.52
2018-03-19T02:13:31.975Z,-1.45
2018-03-19T02:14:31.999Z,-1.46
2018-03-19T02:15:32.003Z,-1.49
2018-03-19T02:16:32.027Z,-1.48
2018-03-19T02:17:32.034Z,-1.42
2018-03-19T02:18:32.053Z,-1.43
2018-03-19T02:19:32.062Z,-1.50
2018-03-19T02:20:32.082Z,-1.46
2018-03-19T02:21:32.090Z,-1.52
2018-03-19T02:22:32.107Z,-1.55
2018-03-19T02:23:32.121Z,-1.46
2018-03-19T02:24:32.132Z,-1.52
2018-03-19T02:25:32.149Z,-1.56
2018-03-19T02:26:32.160Z,-1.64
2018-03-19T02:27:32.180Z,-1.66
2018-03-19T02:28:32.185Z,-1.53
2018-03-19T02:29:32.206Z,-1.66
2018-03-19T02:30:32.213Z,-1.58
2018-03-19T02:31:32.237Z,-1.63
2018-03-19T02:32:32.248Z,-1.63
2018-03-19T02:33:32.263Z,-1.60
2018-03-19T02:34:32.274Z,-1.56
2018-03-19T02:35:32.284Z,-1.55
2018-03-19T02:36:32.307Z,-1.67
2018-03-19T02:37:32.315Z,-1.58
2018-03-19T02:38:32.326Z,-1.60
2018-03-19T02:39:32.341Z,-1.71
2018-03-19T02:40:32.358Z,-1.61
2018-03-19T02:41:32.370Z,-1.64
2018-03-19T02:42:32.384Z,-1.66
2018-03-19T02:43:32.393Z,-1.63
2018-03-19T02:44:32.416Z,-1.63
2018-03-19T02:45:32.419Z,-1.66
2018-03-19T02:46:32.442Z,-1.60
2018-03-19T02:47:32.454Z,-1.61
2018-03-19T02:48:32.466Z,-1.71
2018-03-19T02:49:32.475Z,-1.67
2018-03-19T02:50:32.501Z,-1.64
2018-03-19T02:51:32.512Z,-1.64
2018-03-19T02:52:32.531Z,-1.71
2018-03-19T02:53:32.533Z,-1.73
2018-03-19T02:54:32.552Z,-1.78
2018-03-19T02:55:32.564Z,-1.76
2018-03-19T02:56:32.579Z,-1.76
2018-03-19T02:57:32.586Z,-1.70
2018-03-19T02:58:32.608Z,-1.76
2018-03-19T02:59:32.624Z,-1.76
2018-03-19T03:00:32.629Z,-1.76
2018-03-19T03:01:32.644Z,-1.82
2018-03-19T03:02:32.661Z,-1.85
2018-03-19T03:03:32.678Z,-1.81
2018-03-19T03:04:32.684Z,-1.85
2018-03-19T03:05:32.696Z,-1.84
2018-03-19T03:06:32.710Z,-1.76
2018-03-19T03:07:32.730Z,-1.79
2018-03-19T03:08:32.748Z,-1.88
2018-03-19T03:09:32.750Z,-1.81
2018-03-19T03:10:32.774Z,-1.74
2018-03-19T03:11:32.782Z,-1.79
2018-03-19T03:12:32.799Z,-1.82
2018-03-19T03:13:32.815Z,-1.88
2018-03-19T03:14:32.823Z,-1.85
2018-03-19T03:15:32.840Z,-1.84
2018-03-19T03:16:32.857Z,-1.92
2018-03-19T03:17:32.867Z,-1.89
2018-03-19T03:18:32.878Z,-1.89
2018-03-19T03:19:32.892Z,-2.00
2018-03-19T03:20:32.914Z,-1.94
2018-03-19T03:21:32.917Z,-2.00
2018-03-19T03:22:32.936Z,-1.92
2018-03-19T03:23:32.947Z,-1.91
2018-03-19T03:24:32.958Z,-2.00
2018-03-19T03:25:32.973Z,-1.97
2018-03-19T03:26:32.991Z,-1.96
2018-03-19T03:27:32.998Z,-2.03
2018-03-19T03:28:33.022Z,-1.91
2018-03-19T03:29:33.026Z,-1.99
2018-03-19T03:30:33.050Z,-1.96
2018-03-19T03:31:33.058Z,-1.99
2018-03-19T03:32:33.073Z,-1.91
2018-03-19T03:33:33.083Z,-1.88
2018-03-19T03:34:33.101Z,-2.00
2018-03-19T03:35:33.117Z,-2.03
2018-03-19T03:36:33.129Z,-2.06
2018-03-19T03:37:33.138Z,-2.05
2018-03-19T03:38:33.155Z,-2.18
2018-03-19T03:39:33.163Z,-2.17
2018-03-19T03:40:33.185Z,-2.09
2018-03-19T03:41:33.197Z,-2.15
2018-03-19T03:42:33.214Z,-2.17
2018-03-19T03:43:33.222Z,-2.12
2018-03-19T03:44:33.237Z,-2.09
2018-03-19T03:45:33.254Z,-2.14
2018-03-19T03:46:33.258Z,-2.15
2018-03-19T03:47:33.272Z,-2.15
2018-03-19T03:48:33.297Z,-2.15
2018-03-19T03:49:33.304Z,-2.20
2018-03-19T03:50:33.316Z,-2.27
2018-03-19T03:51:33.333Z,-2.12
2018-03-19T03:52:33.349Z,-2.25
2018-03-19T03:53:33.354Z,-2.25
2018-03-19T03:54:33.372Z,-2.18
2018-03-19T03:55:33.384Z,-2.30
2018-03-19T03:56:33.401Z,-2.28
2018-03-19T03:57:33.411Z,-2.23
2018-03-19T03:58:33.428Z,-2.28
2018-03-19T03:59:33.436Z,-2.30
2018-03-19T04:00:33.459Z,-2.30
2018-03-19T04:01:33.468Z,-2.32
2018-03-19T04:02:33.479Z,-2.30
2018-03-19T04:03:33.493Z,-2.36
2018-03-19T04:04:33.515Z,-2.28
2018-03-19T04:05:33.526Z,-2.43
2018-03-19T04:06:33.530Z,-2.36
2018-03-19T04:07:33.552Z,-2.42
2018-03-19T04:08:33.557Z,-2.40
2018-03-19T04:09:33.574Z,-2.44
2018-03-19T04:10:33.588Z,-2.42
2018-03-19T04:11:33.604Z,-2.44
2018-03-19T04:12:33.621Z,-2.47
2018-03-19T04:13:33.625Z,-2.36
2018-03-19T04:14:33.648Z,-2.49
2018-03-19T04:15:33.661Z,-2.50
2018-03-19T04:16:33.666Z,-2.47
2018-03-19T04:17:33.689Z,-2.39
2018-03-19T04:18:33.694Z,-2.47
2018-03-19T04:19:33.712Z,-2.47
2018-03-19T04:20:33.722Z,-2.44
2018-03-19T04:21:33.747Z,-2.46
2018-03-19T04:22:33.750Z,-2.49
2018-03-19T04:23:33.761Z,-2.57
2018-03-19T04:24:33.786Z,-2.53
2018-03-19T04:25:33.787Z,-2.55
2018-03-19T04:26:33.804Z,-2.53
2018-03-19T04:27:33.818Z,-2.57
2018-03-19T04:28:33.829Z,-2.47
2018-03-19T04:29:33.844Z,-2.50
2018-03-19T04:30:33.861Z,-2.54
2018-03-19T04:31:33.880Z,-2.60
2018-03-19T04:32:33.889Z,-2.50
2018-03-19T04:33:33.904Z,-2.57
2018-03-19T04:34:33.910Z,-2.54
2018-03-19T04:35:33.923Z,-2.58
2018-03-19T04:36:33.944Z,-2.55
2018-03-19T04:37:33.954Z,-2.58
2018-03-19T04:38:33.965Z,-2.67
2018-03-19T04:39:33.976Z,-2.60
2018-03-19T04:40:33.999Z,-2.62
2018-03-19T04:41:34.013Z,-2.67
2018-03-19T04:42:34.019Z,-2.54
2018-03-19T04:43:34.033Z,-2.65
2018-03-19T04:44:34.055Z,-2.64
2018-03-19T04:45:34.066Z,-2.58
2018-03-19T04:46:34.070Z,-2.62
2018-03-19T04:47:34.092Z,-2.64
2018-03-19T04:48:34.105Z,-2.61
2018-03-19T04:49:34.110Z,-2.62
2018-03-19T04:50:34.132Z,-2.65
2018-03-19T04:51:34.140Z,-2.65
2018-03-19T04:52:34.157Z,-2.64
2018-03-19T04:53:34.166Z,-2.54
2018-03-19T04:54:34.183Z,-2.67
2018-03-19T04:55:34.194Z,-2.61
2018-03-19T04:56:34.210Z,-2.64
2018-03-19T04:57:34.219Z,-2.76
2018-03-19T04:58:34.240Z,-2.78
2018-03-19T04:59:34.246Z,-2.73
2018-03-19T05:00:34.266Z,-2.79
2018-03-19T05:01:34.270Z,-2.73
2018-03-19T05:02:34.293Z,-2.78
2018-03-19T05:03:34.305Z,-2.82
2018-03-19T05:04:34.310Z,-2.76
2018-03-19T05:05:34.332Z,-2.73
2018-03-19T05:06:34.337Z,-2.76
2018-03-19T05:07:34.357Z,-2.70
2018-03-19T05:08:34.367Z,-2.67
2018-03-19T05:09:34.385Z,-2.78
2018-03-19T05:10:34.395Z,-2.72
2018-03-19T05:11:34.415Z,-2.75
2018-03-19T05:12:34.420Z,-2.72
2018-03-19T05:13:34.436Z,-2.78
2018-03-19T05:14:34.447Z,-2.78
2018-03-19T05:15:34.465Z,-2.83
2018-03-19T05:16:34.470Z,-2.76
2018-03-19T05:17:34.508Z,-2.86
2018-03-19T05:18:34.496Z,-2.76
2018-03-19T05:19:34.510Z,-2.75
2018-03-19T05:20:34.532Z,-2.78
2018-03-19T05:21:34.542Z,-2.73
2018-03-19T05:22:34.553Z,-2.83
2018-03-19T05:23:34.567Z,-2.79
2018-03-19T05:24:34.585Z,-2.79
2018-03-19T05:25:34.598Z,-2.79
2018-03-19T05:26:34.603Z,-2.76
2018-03-19T05:27:34.620Z,-2.78
2018-03-19T05:28:34.637Z,-2.75
2018-03-19T05:29:34.652Z,-2.79
2018-03-19T05:30:34.657Z,-2.76
2018-03-19T05:31:34.670Z,-2.81
2018-03-19T05:32:34.699Z,-2.75
2018-03-19T05:33:34.702Z,-2.78
2018-03-19T05:34:34.713Z,-2.79
2018-03-19T05:35:34.727Z,-2.76
2018-03-19T05:36:34.744Z,-2.81
2018-03-19T05:37:34.757Z,-2.81
2018-03-19T05:38:34.798Z,-2.82
2018-03-19T05:39:34.776Z,-2.79
2018-03-19T05:40:34.798Z,-2.75
2018-03-19T05:41:34.811Z,-2.85
2018-03-19T05:42:34.819Z,-2.73
2018-03-19T05:43:34.836Z,-2.75
2018-03-19T05:44:34.847Z,-2.72
2018-03-19T05:45:34.859Z,-2.81
2018-03-19T05:46:34.881Z,-2.72
2018-03-19T05:47:34.892Z,-2.81
2018-03-19T05:48:34.896Z,-2.75
2018-03-19T05:49:34.912Z,-2.78
2018-03-19T05:50:34.932Z,-2.85
2018-03-19T05:51:34.937Z,-2.75
2018-03-19T05:52:34.955Z,-2.79
2018-03-19T05:53:34.967Z,-2.73
2018-03-19T05:54:34.985Z,-2.82
2018-03-19T05:55:34.992Z,-2.83
2018-03-19T05:56:35.010Z,-2.62
2018-03-19T05:57:35.019Z,-2.82
2018-03-19T05:58:35.036Z,-2.72
2018-03-19T05:59:35.047Z,-2.85
2018-03-19T06:00:35.063Z,-2.79
2018-03-19T06:01:35.082Z,-2.67
2018-03-19T06:02:35.095Z,-2.78
2018-03-19T06:03:35.096Z,-2.83
2018-03-19T06:04:35.120Z,-2.81
2018-03-19T06:05:35.129Z,-2.81
2018-03-19T06:06:35.140Z,-2.79
2018-03-19T06:07:35.159Z,-2.79
2018-03-19T06:08:35.164Z,-2.79
2018-03-19T06:09:35.186Z,-2.79
2018-03-19T06:10:35.193Z,-2.76
2018-03-19T06:11:35.209Z,-2.78
2018-03-19T06:12:35.221Z,-2.70
2018-03-19T06:13:35.239Z,-2.75
2018-03-19T06:14:35.246Z,-2.78
2018-03-19T06:15:35.257Z,-2.68
2018-03-19T06:16:35.280Z,-2.68
2018-03-19T06:17:35.284Z,-2.58
2018-03-19T06:18:35.308Z,-2.65
2018-03-19T06:19:35.316Z,-2.67
2018-03-19T06:20:35.330Z,-2.67
2018-03-19T06:21:35.340Z,-2.65
2018-03-19T06:22:35.357Z,-2.58
2018-03-19T06:23:35.365Z,-2.70
2018-03-19T06:24:35.390Z,-2.61
2018-03-19T06:25:35.409Z,-2.58
2018-03-19T06:26:35.408Z,-2.68
2018-03-19T06:27:35.422Z,-2.64
2018-03-19T06:28:35.437Z,-2.67
2018-03-19T06:29:35.455Z,-2.61
2018-03-19T06:30:35.458Z,-2.67
2018-03-19T06:31:35.481Z,-2.57
2018-03-19T06:32:35.487Z,-2.58
2018-03-19T06:33:35.508Z,-2.54
2018-03-19T06:34:35.512Z,-2.62
2018-03-19T06:35:35.533Z,-2.54
2018-03-19T06:36:35.542Z,-2.55
2018-03-19T06:37:35.558Z,-2.55
2018-03-19T06:38:35.569Z,-2.57
2018-03-19T06:39:35.589Z,-2.57
2018-03-19T06:40:35.599Z,-2.58
2018-03-19T06:41:35.620Z,-2.53
2018-03-19T06:42:35.621Z,-2.53
2018-03-19T06:43:35.635Z,-2.47
2018-03-19T06:44:35.656Z,-2.53
2018-03-19T06:45:35.737Z,-2.57
2018-03-19T06:46:35.697Z,-2.40
2018-03-19T06:47:35.697Z,-2.40
2018-03-19T06:48:35.710Z,-2.47
2018-03-19T06:49:35.720Z,-2.50
2018-03-19T06:50:35.735Z,-2.44
2018-03-19T06:51:35.744Z,-2.40
2018-03-19T06:52:35.762Z,-2.30
2018-03-19T06:53:35.776Z,-2.40
2018-03-19T06:54:35.801Z,-2.42
2018-03-19T06:55:35.845Z,-2.27
2018-03-19T06:56:35.812Z,-2.27
2018-03-19T06:57:35.828Z,-2.27
2018-03-19T06:58:35.840Z,-2.30
2018-03-19T06:59:35.858Z,-2.25
2018-03-19T07:00:35.865Z,-2.09
2018-03-19T07:01:35.879Z,-2.24
2018-03-19T07:02:35.889Z,-2.24
2018-03-19T07:03:35.913Z,-2.09
2018-03-19T07:04:35.917Z,-2.14
2018-03-19T07:05:35.940Z,-2.17
2018-03-19T07:06:35.945Z,-2.20
2018-03-19T07:07:35.964Z,-2.15
2018-03-19T07:08:35.974Z,-1.97
2018-03-19T07:09:35.992Z,-2.18
2018-03-19T07:10:36.001Z,-2.17
2018-03-19T07:11:36.052Z,-2.07
2018-03-19T07:12:36.033Z,-2.02
2018-03-19T07:13:36.050Z,-2.07
2018-03-19T07:14:36.058Z,-2.00
2018-03-19T07:15:36.068Z,-2.03
2018-03-19T07:16:36.091Z,-2.05
2018-03-19T07:17:36.099Z,-1.96
2018-03-19T07:18:36.116Z,-1.96
2018-03-19T07:19:36.122Z,-1.91
2018-03-19T07:20:36.146Z,-1.88
2018-03-19T07:21:36.147Z,-1.99
2018-03-19T07:22:36.195Z,-1.85
2018-03-19T07:23:36.179Z,-1.84
2018-03-19T07:24:36.197Z,-1.74
2018-03-19T07:25:36.209Z,-1.67
2018-03-19T07:26:36.222Z,-1.66
2018-03-19T07:27:36.236Z,-1.74
2018-03-19T07:28:36.250Z,-1.63
2018-03-19T07:29:36.271Z,-1.67
2018-03-19T07:30:36.276Z,-1.52
2018-03-19T07:31:36.295Z,-1.66
2018-03-19T07:32:36.321Z,-1.45
2018-03-19T07:33:36.317Z,-1.49
2018-03-19T07:34:36.402Z,-1.48
2018-03-19T07:35:36.344Z,-1.38
2018-03-19T07:36:36.361Z,-1.49
2018-03-19T07:37:36.377Z,-1.43
2018-03-19T07:38:36.382Z,-1.32
2018-03-19T07:39:36.396Z,-1.38
2018-03-19T07:40:36.418Z,-1.25
2018-03-19T07:41:36.430Z,-1.07
2018-03-19T07:42:36.441Z,-0.76
2018-03-19T07:43:36.461Z,-0.41
2018-03-19T07:44:36.472Z,0.19
2018-03-19T07:45:36.489Z,0.96
2018-03-19T07:46:36.496Z,1.79
2018-03-19T07:47:36.509Z,2.49
2018-03-19T07:48:36.548Z,3.29
2018-03-19T07:49:36.538Z,3.49
2018-03-19T07:50:36.560Z,3.93
2018-03-19T07:51:36.575Z,4.00
2018-03-19T07:52:36.589Z,4.08
2018-03-19T07:53:36.602Z,4.29
2018-03-19T07:54:36.627Z,4.56
2018-03-19T07:55:36.643Z,4.85
2018-03-19T07:56:36.659Z,3.82
2018-03-19T07:57:36.674Z,3.61
2018-03-19T07:58:36.694Z,3.72
2018-03-19T07:59:36.712Z,4.00
2018-03-19T08:00:36.729Z,3.89
2018-03-19T08:01:36.756Z,3.66
2018-03-19T08:02:36.765Z,3.90
2018-03-19T08:03:36.791Z,4.03
2018-03-19T08:04:36.802Z,4.46
2018-03-19T08:05:36.825Z,4.71
2018-03-19T08:06:36.844Z,4.92
2018-03-19T08:07:36.898Z,4.90
2018-03-19T08:08:36.890Z,5.02
2018-03-19T08:09:36.913Z,4.98
2018-03-19T08:10:36.925Z,5.06
2018-03-19T08:11:36.947Z,5.37
2018-03-19T08:12:36.978Z,5.75
2018-03-19T08:13:36.995Z,5.91
2018-03-19T08:14:37.020Z,5.49
2018-03-19T08:15:37.043Z,5.41
2018-03-19T08:16:37.057Z,5.69
2018-03-19T08:17:37.081Z,5.44
2018-03-19T08:18:37.115Z,5.78
2018-03-19T08:19:37.130Z,5.70
2018-03-19T08:20:37.156Z,5.89
2018-03-19T08:21:37.175Z,5.89
2018-03-19T08:22:37.202Z,6.07
2018-03-19T08:23:37.222Z,6.37
2018-03-19T08:24:37.242Z,6.09
2018-03-19T08:25:37.268Z,5.95
2018-03-19T08:26:37.288Z,5.64
2018-03-19T08:27:37.318Z,6.03
2018-03-19T08:28:37.334Z,6.42
2018-03-19T08:29:37.364Z,6.57
2018-03-19T08:30:37.379Z,7.04
2018-03-19T08:31:37.409Z,7.12
2018-03-19T08:32:37.431Z,7.15
2018-03-19T08:33:37.451Z,7.63
2018-03-19T08:34:37.478Z,8.06
2018-03-19T08:35:37.511Z,8.03
2018-03-19T08:36:37.537Z,7.86
2018-03-19T08:37:37.550Z,8.03
2018-03-19T08:38:37.578Z,6.83
2018-03-19T08:39:37.600Z,6.97
2018-03-19T08:40:37.627Z,7.30
2018-03-19T08:41:37.736Z,6.70
2018-03-19T08:42:37.679Z,7.21
2018-03-19T08:43:37.696Z,7.13
2018-03-19T08:44:37.730Z,7.21
2018-03-19T08:45:37.744Z,7.82
2018-03-19T08:46:37.778Z,7.67
2018-03-19T08:47:37.804Z,7.34
2018-03-19T08:48:37.826Z,6.91
2018-03-19T08:49:37.875Z,6.55
2018-03-19T08:50:37.922Z,6.83
2018-03-19T08:51:37.904Z,6.98
2018-03-19T08:52:37.923Z,7.26
2018-03-19T08:53:37.962Z,7.27
2018-03-19T08:54:37.970Z,7.64
2018-03-19T08:55:37.999Z,6.97
2018-03-19T08:56:38.034Z,7.27
2018-03-19T08:57:38.049Z,7.18
2018-03-19T08:58:38.078Z,7.21
2018-03-19T08:59:38.098Z,7.77
2018-03-19T09:00:38.133Z,8.53
2018-03-19T09:01:38.148Z,8.62
2018-03-19T09:02:38.183Z,8.58
2018-03-19T09:03:38.203Z,8.44
2018-03-19T09:04:38.232Z,8.52
2018-03-19T09:05:38.261Z,8.54
2018-03-19T09:06:38.277Z,7.98
2018-03-19T09:07:38.310Z,8.29
2018-03-19T09:08:38.339Z,8.01
2018-03-19T09:09:38.361Z,8.24
2018-03-19T09:10:38.395Z,8.49
2018-03-19T09:11:38.413Z,8.76
2018-03-19T09:12:38.453Z,9.17
2018-03-19T09:13:38.465Z,9.20
2018-03-19T09:14:38.488Z,9.80
2018-03-19T09:15:38.520Z,9.32
2018-03-19T09:16:38.539Z,8.79
2018-03-19T09:17:38.572Z,9.35
2018-03-19T09:18:38.589Z,8.61
2018-03-19T09:19:38.617Z,7.99
2018-03-19T09:20:38.652Z,7.88
2018-03-19T09:21:38.675Z,8.42
2018-03-19T09:22:38.698Z,8.92
2018-03-19T09:23:38.726Z,8.69
2018-03-19T09:24:38.755Z,8.64
2018-03-19T09:25:38.810Z,8.79
2018-03-19T09:26:38.806Z,9.32
2018-03-19T09:27:38.838Z,9.60
2018-03-19T09:28:38.856Z,9.48
2018-03-19T09:29:38.885Z,9.71
2018-03-19T09:30:38.914Z,8.77
2018-03-19T09:31:38.942Z,8.46
2018-03-19T09:32:38.966Z,8.52
2018-03-19T09:33:38.988Z,8.72
2018-03-19T09:34:39.024Z,8.54
2018-03-19T09:35:39.045Z,8.49
2018-03-19T09:36:39.127Z,8.50
2018-03-19T09:37:39.097Z,8.62
2018-03-19T09:38:39.128Z,8.94
2018-03-19T09:39:39.153Z,9.50
2018-03-19T09:40:39.186Z,9.62
2018-03-19T09:41:39.222Z,9.27
2018-03-19T09:42:39.238Z,9.23
2018-03-19T09:43:39.257Z,9.53
2018-03-19T09:44:39.293Z,10.02
2018-03-19T09:45:39.319Z,9.71
2018-03-19T09:46:39.341Z,9.47
2018-03-19T09:47:39.368Z,9.70
2018-03-19T09:48:39.398Z,9.77
2018-03-19T09:49:39.427Z,9.44
2018-03-19T09:50:39.464Z,9.74
2018-03-19T09:51:39.479Z,9.60
2018-03-19T09:52:39.503Z,9.50
2018-03-19T09:53:39.535Z,9.30
2018-03-19T09:54:39.611Z,9.39
2018-03-19T09:55:39.595Z,9.45
2018-03-19T09:56:39.610Z,9.34
2018-03-19T09:57:39.645Z,8.87
2018-03-19T09:58:39.664Z,9.03
2018-03-19T09:59:39.700Z,8.68
2018-03-19T10:00:39.719Z,8.64
2018-03-19T10:01:39.755Z,8.47
2018-03-19T10:02:39.773Z,8.58
2018-03-19T10:03:39.806Z,9.26
2018-03-19T10:04:39.831Z,9.29
2018-03-19T10:05:39.861Z,9.78
2018-03-19T10:06:39.885Z,10.11
2018-03-19T10:07:39.912Z,9.89
2018-03-19T10:08:39.942Z,9.93
2018-03-19T10:09:39.971Z,9.93
2018-03-19T10:10:39.993Z,9.78
2018-03-19T10:11:40.018Z,9.62
2018-03-19T10:12:40.056Z,9.88
2018-03-19T10:13:40.079Z,9.53
2018-03-19T10:14:40.103Z,9.72
2018-03-19T10:15:40.131Z,9.55
2018-03-19T10:16:40.169Z,9.89
2018-03-19T10:17:40.188Z,9.96
2018-03-19T10:18:40.214Z,10.18
2018-03-19T10:19:40.241Z,10.00
2018-03-19T10:20:40.272Z,9.89
2018-03-19T10:21:40.328Z,9.60
2018-03-19T10:22:40.321Z,9.70
2018-03-19T10:23:40.349Z,9.95
2018-03-19T10:24:40.385Z,9.75
2018-03-19T10:25:40.409Z,9.55
2018-03-19T10:26:40.435Z,9.44
2018-03-19T10:27:40.460Z,9.21
2018-03-19T10:28:40.492Z,9.12
2018-03-19T10:29:40.522Z,9.75
2018-03-19T10:30:40.541Z,9.60
2018-03-19T10:31:40.572Z,10.20
2018-03-19T10:32:40.606Z,10.26
2018-03-19T10:33:40.632Z,9.93
2018-03-19T10:34:40.652Z,9.75
2018-03-19T10:35:40.679Z,9.88
2018-03-19T10:36:40.716Z,9.74
2018-03-19T10:37:40.740Z,9.88
2018-03-19T10:38:40.789Z,10.20
2018-03-19T10:39:40.794Z,11.15
2018-03-19T10:40:40.823Z,11.21
2018-03-19T10:41:40.848Z,10.97
2018-03-19T10:42:40.883Z,10.54
2018-03-19T10:43:40.901Z,10.31
2018-03-19T10:44:40.938Z,10.25
2018-03-19T10:45:40.958Z,9.95
2018-03-19T10:46:40.994Z,9.77
2018-03-19T10:47:41.012Z,9.75
2018-03-19T10:48:41.049Z,9.62
2018-03-19T10:49:41.068Z,10.05
2018-03-19T10:50:41.104Z,9.81
2018-03-19T10:51:41.127Z,10.32
2018-03-19T10:52:41.158Z,10.02
2018-03-19T10:53:41.181Z,10.28
2018-03-19T10:54:41.212Z,10.15
2018-03-19T10:55:41.240Z,10.02
2018-03-19T10:56:41.272Z,10.20
2018-03-19T10:57:41.290Z,10.70
2018-03-19T10:58:41.326Z,10.73
2018-03-19T10:59:41.349Z,10.29
2018-03-19T11:00:41.380Z,10.63
2018-03-19T11:01:41.407Z,10.66
2018-03-19T11:02:41.434Z,10.33
2018-03-19T11:03:41.465Z,10.46
2018-03-19T11:04:41.486Z,10.79
2018-03-19T11:05:41.521Z,10.94
2018-03-19T11:06:41.540Z,11.23
2018-03-19T11:07:41.573Z,10.94
2018-03-19T11:08:41.598Z,11.16
2018-03-19T11:09:41.628Z,10.98
2018-03-19T11:10:41.653Z,10.72
2018-03-19T11:11:41.687Z,10.87
2018-03-19T11:12:41.712Z,10.63
2018-03-19T11:13:41.744Z,10.97
2018-03-19T11:14:41.762Z,10.95
2018-03-19T11:15:41.790Z,11.05
2018-03-19T11:16:41.827Z,11.10
2018-03-19T11:17:41.846Z,11.10
2018-03-19T11:18:41.876Z,11.53
2018-03-19T11:19:41.900Z,11.15
2018-03-19T11:20:41.939Z,11.03
2018-03-19T11:21:41.955Z,10.98
2018-03-19T11:22:41.992Z,11.27
2018-03-19T11:23:42.015Z,11.21
2018-03-19T11:24:42.046Z,10.87
2018-03-19T11:25:42.070Z,11.51
2018-03-19T11:26:42.105Z,11.79
2018-03-19T11:27:42.129Z,11.53
2018-03-19T11:28:42.155Z,11.89
2018-03-19T11:29:42.184Z,11.70
2018-03-19T11:30:42.210Z,11.57
2018-03-19T11:31:42.244Z,11.70
2018-03-19T11:32:42.269Z,11.23
2018-03-19T11:33:42.294Z,11.33
2018-03-19T11:34:42.319Z,11.56
2018-03-19T11:35:42.357Z,11.79
2018-03-19T11:36:42.376Z,11.39
2018-03-19T11:37:42.405Z,11.26
2018-03-19T11:38:42.447Z,10.75
2018-03-19T11:39:42.465Z,10.85
2018-03-19T11:40:42.490Z,10.70
2018-03-19T11:41:42.514Z,10.77
2018-03-19T11:42:42.551Z,10.77
2018-03-19T11:43:42.574Z,11.15
2018-03-19T11:44:42.606Z,10.91
2018-03-19T11:45:42.628Z,11.26
2018-03-19T11:46:42.655Z,10.80
2018-03-19T11:47:42.683Z,10.21
2018-03-19T11:48:42.717Z,10.03
2018-03-19T11:49:42.737Z,9.77
2018-03-19T11:50:42.774Z,10.35
2018-03-19T11:51:42.793Z,10.57
2018-03-19T11:52:42.830Z,10.95
2018-03-19T11:53:42.853Z,11.21
2018-03-19T11:54:42.879Z,11.68
2018-03-19T11:55:42.911Z,11.52
2018-03-19T11:56:42.937Z,11.21
2018-03-19T11:57:42.968Z,11.23
2018-03-19T11:58:42.985Z,11.20
2018-03-19T11:59:43.023Z,11.18
2018-03-19T12:00:43.049Z,11.15
2018-03-19T12:01:43.068Z,10.90
2018-03-19T12:02:43.103Z,11.20
2018-03-19T12:03:43.124Z,10.88
2018-03-19T12:04:43.156Z,10.57
2018-03-19T12:05:43.185Z,10.26
2018-03-19T12:06:43.212Z,10.31
2018-03-19T12:07:43.233Z,10.46
2018-03-19T12:08:43.265Z,10.77
2018-03-19T12:09:43.287Z,10.79
2018-03-19T12:10:43.317Z,10.97
2018-03-19T12:11:43.339Z,10.91
2018-03-19T12:12:43.374Z,11.10
2018-03-19T12:13:43.393Z,10.90
2018-03-19T12:14:43.429Z,10.63
2018-03-19T12:15:43.455Z,10.46
2018-03-19T12:16:43.479Z,10.92
2018-03-19T12:17:43.508Z,11.42
2018-03-19T12:18:43.529Z,11.00
2018-03-19T12:19:43.554Z,10.80
2018-03-19T12:20:43.590Z,11.05
2018-03-19T12:21:43.608Z,11.23
2018-03-19T12:22:43.637Z,11.39
2018-03-19T12:23:43.661Z,11.68
2018-03-19T12:24:43.700Z,11.81
2018-03-19T12:25:43.720Z,11.85
2018-03-19T12:26:43.747Z,11.38
2018-03-19T12:27:43.774Z,11.43
2018-03-19T12:28:43.800Z,11.27
2018-03-19T12:29:43.830Z,11.35
2018-03-19T12:30:43.848Z,11.13
2018-03-19T12:31:43.880Z,11.09
2018-03-19T12:32:43.910Z,11.16
2018-03-19T12:33:43.932Z,11.20
2018-03-19T12:34:43.957Z,10.88
2018-03-19T12:35:43.984Z,11.09
2018-03-19T12:36:44.014Z,11.49
2018-03-19T12:37:44.036Z,11.35
2018-03-19T12:38:44.062Z,11.30
2018-03-19T12:39:44.089Z,11.51
2018-03-19T12:40:44.119Z,11.20
2018-03-19T12:41:44.145Z,11.53
2018-03-19T12:42:44.163Z,11.38
2018-03-19T12:43:44.190Z,11.79
2018-03-19T12:44:44.225Z,11.89
2018-03-19T12:45:44.247Z,11.61
2018-03-19T12:46:44.271Z,11.85
2018-03-19T12:47:44.298Z,12.20
2018-03-19T12:48:44.327Z,12.26
2018-03-19T12:49:44.354Z,12.01
2018-03-19T12:50:44.374Z,12.00
2018-03-19T12:51:44.399Z,12.01
2018-03-19T12:52:44.429Z,12.04
2018-03-19T12:53:44.456Z,11.56
2018-03-19T12:54:44.480Z,11.56
2018-03-19T12:55:44.515Z,11.91
2018-03-19T12:56:44.532Z,11.97
2018-03-19T12:57:44.560Z,11.91
2018-03-19T12:58:44.585Z,12.08